BGA112N LFBO-LFRZ
Flight info
| Callsign | BGA112N |
|---|---|
| Flight time | 1h 3m |
| Altitude | 30000 |
| Route | LACOU DCT CHALA DCT CNA/N0374F240 DCT MANAK UY110 NTS |
| Aircraft | A337/H-SDE3GHIJ2J3J5M1RVWXY/LB2D1 |
Departure
| Time | 2026-04-27 04:39 |
|---|---|
| Airport | Toulouse-Blagnac Airport (LFBO) |
Arrival
| Time | 2026-04-27 05:42 |
|---|---|
| Airport | Saint-Nazaire-Montoir Airport (LFRZ) |
| Time | Latitude | Longitude | Altitude | Speed | Heading |
|---|---|---|---|---|---|
| 2026-04-27 04:14 | 43.62520 | 1.35747 | 471 ft | 0 kts | 323° |
| 2026-04-27 04:31 | 43.62518 | 1.35748 | 498 ft | 2 kts | 323° |
| 2026-04-27 04:31 | 43.62497 | 1.35768 | 487 ft | 5 kts | 329° |
| 2026-04-27 04:31 | 43.62473 | 1.35784 | 487 ft | 6 kts | 347° |
| 2026-04-27 04:31 | 43.62451 | 1.35784 | 487 ft | 6 kts | 45° |
| 2026-04-27 04:32 | 43.62448 | 1.35779 | 487 ft | 0 kts | 53° |
| 2026-04-27 04:33 | 43.62449 | 1.35781 | 487 ft | 3 kts | 53° |
| 2026-04-27 04:34 | 43.62478 | 1.35836 | 487 ft | 8 kts | 53° |
| 2026-04-27 04:34 | 43.62516 | 1.35906 | 489 ft | 12 kts | 53° |
| 2026-04-27 04:34 | 43.62585 | 1.36038 | 489 ft | 19 kts | 55° |
| 2026-04-27 04:34 | 43.62581 | 1.36183 | 488 ft | 15 kts | 130° |
| 2026-04-27 04:35 | 43.62502 | 1.36266 | 487 ft | 14 kts | 143° |
| 2026-04-27 04:35 | 43.62411 | 1.36362 | 489 ft | 23 kts | 143° |
| 2026-04-27 04:35 | 43.62280 | 1.36498 | 490 ft | 24 kts | 143° |
| 2026-04-27 04:35 | 43.62154 | 1.36628 | 488 ft | 22 kts | 143° |
| 2026-04-27 04:36 | 43.62033 | 1.36753 | 487 ft | 22 kts | 143° |
| 2026-04-27 04:36 | 43.61924 | 1.36867 | 489 ft | 17 kts | 140° |
| 2026-04-27 04:36 | 43.61834 | 1.36973 | 491 ft | 16 kts | 125° |
| 2026-04-27 04:36 | 43.61825 | 1.37015 | 488 ft | 0 kts | 98° |
| 2026-04-27 04:37 | 43.61824 | 1.37020 | 487 ft | 1 kts | 98° |
| 2026-04-27 04:37 | 43.61826 | 1.37050 | 490 ft | 9 kts | 72° |
| 2026-04-27 04:37 | 43.61896 | 1.37161 | 487 ft | 18 kts | 21° |
| 2026-04-27 04:37 | 43.61962 | 1.37142 | 487 ft | 0 kts | 322° |
| 2026-04-27 04:38 | 43.61987 | 1.37115 | 487 ft | 19 kts | 322° |
| 2026-04-27 04:38 | 43.62250 | 1.36837 | 492 ft | 78 kts | 323° |
| 2026-04-27 04:38 | 43.62826 | 1.36241 | 487 ft | 130 kts | 323° |
| 2026-04-27 04:38 | 43.63686 | 1.35355 | 520 ft | 175 kts | 322° |
| 2026-04-27 04:39 | 43.64681 | 1.34346 | 1083 ft | 179 kts | 322° |
| 2026-04-27 04:39 | 43.65660 | 1.33318 | 1869 ft | 177 kts | 322° |
| 2026-04-27 04:39 | 43.66702 | 1.32215 | 2225 ft | 203 kts | 322° |
| 2026-04-27 04:39 | 43.67909 | 1.30945 | 2439 ft | 233 kts | 322° |
| 2026-04-27 04:40 | 43.69259 | 1.29537 | 2749 ft | 252 kts | 323° |
| 2026-04-27 04:40 | 43.70682 | 1.28055 | 3279 ft | 257 kts | 323° |
| 2026-04-27 04:40 | 43.72229 | 1.26802 | 3897 ft | 261 kts | 338° |
| 2026-04-27 04:40 | 43.73978 | 1.26069 | 4526 ft | 264 kts | 345° |
| 2026-04-27 04:41 | 43.75782 | 1.25475 | 5153 ft | 268 kts | 346° |
| 2026-04-27 04:41 | 43.77573 | 1.24722 | 5779 ft | 271 kts | 337° |
| 2026-04-27 04:41 | 43.79311 | 1.23674 | 6427 ft | 274 kts | 334° |
| 2026-04-27 04:41 | 43.81046 | 1.22546 | 7073 ft | 277 kts | 334° |
| 2026-04-27 04:42 | 43.82789 | 1.21400 | 7775 ft | 277 kts | 334° |
| 2026-04-27 04:42 | 43.84540 | 1.20250 | 8460 ft | 279 kts | 334° |
| 2026-04-27 04:42 | 43.86302 | 1.19093 | 9113 ft | 282 kts | 334° |
| 2026-04-27 04:42 | 43.88086 | 1.17923 | 9769 ft | 285 kts | 334° |
| 2026-04-27 04:43 | 43.89886 | 1.16741 | 10341 ft | 290 kts | 334° |
| 2026-04-27 04:43 | 43.91760 | 1.15511 | 10582 ft | 306 kts | 334° |
| 2026-04-27 04:43 | 43.93729 | 1.14217 | 10835 ft | 320 kts | 334° |
| 2026-04-27 04:43 | 43.95755 | 1.12885 | 11276 ft | 325 kts | 334° |
| 2026-04-27 04:44 | 43.97792 | 1.11546 | 11799 ft | 329 kts | 334° |
| 2026-04-27 04:44 | 43.99873 | 1.10177 | 12315 ft | 333 kts | 334° |
| 2026-04-27 04:44 | 44.02003 | 1.08775 | 12867 ft | 335 kts | 334° |
| 2026-04-27 04:44 | 44.04101 | 1.07392 | 13376 ft | 339 kts | 334° |
| 2026-04-27 04:45 | 44.06242 | 1.05980 | 13909 ft | 342 kts | 334° |
| 2026-04-27 04:45 | 44.08399 | 1.04556 | 14369 ft | 345 kts | 334° |
| 2026-04-27 04:45 | 44.10571 | 1.03121 | 14841 ft | 347 kts | 334° |
| 2026-04-27 04:45 | 44.12764 | 1.01671 | 15312 ft | 349 kts | 334° |
| 2026-04-27 04:46 | 44.14967 | 1.00213 | 15776 ft | 352 kts | 334° |
| 2026-04-27 04:46 | 44.17196 | 0.98737 | 16234 ft | 354 kts | 334° |
| 2026-04-27 04:46 | 44.19427 | 0.97258 | 16688 ft | 357 kts | 334° |
| 2026-04-27 04:46 | 44.21682 | 0.95762 | 17139 ft | 359 kts | 334° |
| 2026-04-27 04:47 | 44.23954 | 0.94253 | 17579 ft | 362 kts | 334° |
| 2026-04-27 04:47 | 44.26236 | 0.92736 | 18034 ft | 364 kts | 334° |
| 2026-04-27 04:47 | 44.28526 | 0.91213 | 18473 ft | 367 kts | 334° |
| 2026-04-27 04:47 | 44.30832 | 0.89645 | 18827 ft | 369 kts | 333° |
| 2026-04-27 04:48 | 44.33103 | 0.88045 | 19203 ft | 371 kts | 332° |
| 2026-04-27 04:48 | 44.35434 | 0.86371 | 19569 ft | 373 kts | 332° |
| 2026-04-27 04:48 | 44.37720 | 0.84717 | 19942 ft | 375 kts | 332° |
| 2026-04-27 04:48 | 44.40043 | 0.83034 | 20297 ft | 377 kts | 332° |
| 2026-04-27 04:49 | 44.42379 | 0.81343 | 20651 ft | 379 kts | 332° |
| 2026-04-27 04:49 | 44.44731 | 0.79644 | 20994 ft | 381 kts | 332° |
| 2026-04-27 04:49 | 44.47099 | 0.77934 | 21342 ft | 383 kts | 332° |
| 2026-04-27 04:49 | 44.49473 | 0.76222 | 21690 ft | 385 kts | 332° |
| 2026-04-27 04:50 | 44.51872 | 0.74490 | 21985 ft | 388 kts | 332° |
| 2026-04-27 04:50 | 44.54274 | 0.72756 | 22297 ft | 390 kts | 332° |
| 2026-04-27 04:50 | 44.56698 | 0.71004 | 22635 ft | 392 kts | 331° |
| 2026-04-27 04:50 | 44.59128 | 0.69247 | 22950 ft | 394 kts | 331° |
| 2026-04-27 04:51 | 44.61569 | 0.67479 | 23263 ft | 396 kts | 331° |
| 2026-04-27 04:51 | 44.64021 | 0.65701 | 23559 ft | 398 kts | 331° |
| 2026-04-27 04:51 | 44.66485 | 0.63913 | 23836 ft | 400 kts | 331° |
| 2026-04-27 04:51 | 44.68961 | 0.62114 | 24096 ft | 401 kts | 331° |
| 2026-04-27 04:52 | 44.71451 | 0.60303 | 24354 ft | 402 kts | 331° |
| 2026-04-27 04:52 | 44.73934 | 0.58496 | 24683 ft | 401 kts | 331° |
| 2026-04-27 04:52 | 44.76401 | 0.56699 | 25017 ft | 400 kts | 331° |
| 2026-04-27 04:52 | 44.78044 | 0.55501 | 25234 ft | 399 kts | 331° |
| 2026-04-27 04:53 | 44.80507 | 0.53705 | 25557 ft | 398 kts | 331° |
| 2026-04-27 04:53 | 44.82958 | 0.51915 | 25865 ft | 397 kts | 331° |
| 2026-04-27 04:53 | 44.85412 | 0.50120 | 26175 ft | 396 kts | 330° |
| 2026-04-27 04:53 | 44.87854 | 0.48333 | 26496 ft | 395 kts | 330° |
| 2026-04-27 04:54 | 44.90300 | 0.46542 | 26803 ft | 395 kts | 330° |
| 2026-04-27 04:54 | 44.92734 | 0.44757 | 27103 ft | 394 kts | 330° |
| 2026-04-27 04:54 | 44.95158 | 0.42978 | 27403 ft | 393 kts | 330° |
| 2026-04-27 04:54 | 44.97589 | 0.41192 | 27694 ft | 392 kts | 330° |
| 2026-04-27 04:55 | 45.00002 | 0.39418 | 27992 ft | 392 kts | 330° |
| 2026-04-27 04:55 | 45.02417 | 0.37641 | 28289 ft | 391 kts | 330° |
| 2026-04-27 04:55 | 45.04831 | 0.35862 | 28502 ft | 392 kts | 330° |
| 2026-04-27 04:55 | 45.07257 | 0.34072 | 28752 ft | 392 kts | 330° |
| 2026-04-27 04:56 | 45.09670 | 0.32290 | 29045 ft | 391 kts | 330° |
| 2026-04-27 04:56 | 45.12074 | 0.30514 | 29335 ft | 390 kts | 330° |
| 2026-04-27 04:56 | 45.14484 | 0.28731 | 29607 ft | 389 kts | 330° |
| 2026-04-27 04:56 | 45.16890 | 0.26951 | 29878 ft | 389 kts | 330° |
| 2026-04-27 04:57 | 45.19287 | 0.25174 | 30127 ft | 389 kts | 329° |
| 2026-04-27 04:57 | 45.21695 | 0.23387 | 30154 ft | 394 kts | 329° |
| 2026-04-27 04:57 | 45.26604 | 0.19738 | 30150 ft | 398 kts | 329° |
| 2026-04-27 04:58 | 45.31507 | 0.16090 | 30149 ft | 398 kts | 329° |
| 2026-04-27 04:58 | 45.36138 | 0.11887 | 30152 ft | 393 kts | 316° |
| 2026-04-27 04:59 | 45.40111 | 0.06565 | 30162 ft | 392 kts | 312° |
| 2026-04-27 04:59 | 45.44172 | 0.01358 | 30140 ft | 394 kts | 316° |
| 2026-04-27 05:00 | 45.48348 | -0.03624 | 30146 ft | 394 kts | 317° |
| 2026-04-27 05:00 | 45.52586 | -0.08624 | 30171 ft | 395 kts | 317° |
| 2026-04-27 05:01 | 45.56819 | -0.13628 | 30154 ft | 395 kts | 317° |
| 2026-04-27 05:01 | 45.61048 | -0.18647 | 30157 ft | 395 kts | 316° |
| 2026-04-27 05:02 | 45.65270 | -0.23672 | 30157 ft | 395 kts | 316° |
| 2026-04-27 05:03 | 45.71608 | -0.31237 | 30154 ft | 395 kts | 316° |
| 2026-04-27 05:03 | 45.75823 | -0.36281 | 30152 ft | 395 kts | 316° |
| 2026-04-27 05:04 | 45.80020 | -0.41311 | 30154 ft | 395 kts | 316° |
| 2026-04-27 05:04 | 45.84226 | -0.46365 | 30154 ft | 395 kts | 316° |
| 2026-04-27 05:05 | 45.88435 | -0.51431 | 30158 ft | 395 kts | 316° |
| 2026-04-27 05:05 | 45.92636 | -0.56499 | 30157 ft | 395 kts | 316° |
| 2026-04-27 05:06 | 45.96835 | -0.61574 | 30155 ft | 394 kts | 316° |
| 2026-04-27 05:06 | 46.01033 | -0.66658 | 30156 ft | 394 kts | 315° |
| 2026-04-27 05:07 | 46.05230 | -0.71753 | 30157 ft | 394 kts | 315° |
| 2026-04-27 05:07 | 46.09421 | -0.76850 | 30157 ft | 394 kts | 315° |
| 2026-04-27 05:08 | 46.13610 | -0.81955 | 30156 ft | 394 kts | 315° |
| 2026-04-27 05:08 | 46.17797 | -0.87069 | 30157 ft | 394 kts | 315° |
| 2026-04-27 05:09 | 46.21977 | -0.92183 | 30156 ft | 394 kts | 315° |
| 2026-04-27 05:09 | 46.26135 | -0.97282 | 30158 ft | 394 kts | 315° |
| 2026-04-27 05:10 | 46.30333 | -1.02440 | 30060 ft | 392 kts | 315° |
| 2026-04-27 05:10 | 46.32370 | -1.04944 | 29600 ft | 388 kts | 315° |
| 2026-04-27 05:10 | 46.34432 | -1.07483 | 28925 ft | 389 kts | 315° |
| 2026-04-27 05:10 | 46.36493 | -1.10027 | 28261 ft | 390 kts | 315° |
| 2026-04-27 05:11 | 46.38559 | -1.12579 | 27602 ft | 390 kts | 315° |
| 2026-04-27 05:11 | 46.40618 | -1.15124 | 26959 ft | 390 kts | 315° |
| 2026-04-27 05:11 | 46.42684 | -1.17682 | 26334 ft | 391 kts | 315° |
| 2026-04-27 05:11 | 46.44756 | -1.20249 | 25714 ft | 393 kts | 315° |
| 2026-04-27 05:12 | 46.46846 | -1.22840 | 25119 ft | 395 kts | 315° |
| 2026-04-27 05:12 | 46.48942 | -1.25442 | 24530 ft | 398 kts | 316° |
| 2026-04-27 05:12 | 46.51046 | -1.28056 | 23951 ft | 399 kts | 316° |
| 2026-04-27 05:12 | 46.53155 | -1.30679 | 23305 ft | 399 kts | 316° |
| 2026-04-27 05:13 | 46.55257 | -1.33293 | 22635 ft | 397 kts | 316° |
| 2026-04-27 05:13 | 46.57344 | -1.35891 | 21986 ft | 394 kts | 316° |
| 2026-04-27 05:13 | 46.59496 | -1.38366 | 21336 ft | 394 kts | 325° |
| 2026-04-27 05:13 | 46.61855 | -1.40389 | 20716 ft | 393 kts | 328° |
| 2026-04-27 05:14 | 46.64243 | -1.42240 | 20258 ft | 387 kts | 330° |
| 2026-04-27 05:14 | 46.66633 | -1.43969 | 19841 ft | 381 kts | 332° |
| 2026-04-27 05:14 | 46.69017 | -1.45639 | 19426 ft | 379 kts | 332° |
| 2026-04-27 05:14 | 46.71409 | -1.47298 | 19021 ft | 378 kts | 332° |
| 2026-04-27 05:15 | 46.73771 | -1.48942 | 18621 ft | 376 kts | 332° |
| 2026-04-27 05:15 | 46.76123 | -1.50589 | 18195 ft | 373 kts | 332° |
| 2026-04-27 05:15 | 46.78455 | -1.52234 | 17742 ft | 371 kts | 332° |
| 2026-04-27 05:15 | 46.80769 | -1.53875 | 17295 ft | 368 kts | 332° |
| 2026-04-27 05:16 | 46.83059 | -1.55505 | 16859 ft | 365 kts | 332° |
| 2026-04-27 05:16 | 46.85334 | -1.57102 | 16425 ft | 362 kts | 335° |
| 2026-04-27 05:16 | 46.87758 | -1.58119 | 16000 ft | 362 kts | 347° |
| 2026-04-27 05:16 | 46.90233 | -1.58694 | 15581 ft | 360 kts | 351° |
| 2026-04-27 05:17 | 46.92669 | -1.59438 | 15229 ft | 356 kts | 343° |
| 2026-04-27 05:17 | 46.95057 | -1.60356 | 14711 ft | 355 kts | 343° |
| 2026-04-27 05:17 | 46.97432 | -1.61314 | 14106 ft | 352 kts | 342° |
| 2026-04-27 05:17 | 46.99760 | -1.62275 | 13468 ft | 350 kts | 342° |
| 2026-04-27 05:18 | 47.02094 | -1.63250 | 12819 ft | 348 kts | 342° |
| 2026-04-27 05:18 | 47.04409 | -1.64222 | 12199 ft | 345 kts | 343° |
| 2026-04-27 05:18 | 47.06689 | -1.65182 | 11557 ft | 336 kts | 343° |
| 2026-04-27 05:18 | 47.08888 | -1.66109 | 10939 ft | 323 kts | 343° |
| 2026-04-27 05:19 | 47.11008 | -1.67004 | 10356 ft | 312 kts | 343° |
| 2026-04-27 05:19 | 47.13067 | -1.67861 | 9745 ft | 302 kts | 347° |
| 2026-04-27 05:19 | 47.15103 | -1.68238 | 9305 ft | 289 kts | 358° |
| 2026-04-27 05:19 | 47.17087 | -1.68247 | 9193 ft | 284 kts | 0° |
| 2026-04-27 05:20 | 47.19072 | -1.68217 | 9185 ft | 285 kts | 0° |
| 2026-04-27 05:20 | 47.21051 | -1.68187 | 9183 ft | 285 kts | 1° |
| 2026-04-27 05:20 | 47.23029 | -1.68157 | 9186 ft | 284 kts | 1° |
| 2026-04-27 05:20 | 47.25005 | -1.68129 | 9185 ft | 283 kts | 1° |
| 2026-04-27 05:21 | 47.26976 | -1.68099 | 9182 ft | 284 kts | 1° |
| 2026-04-27 05:21 | 47.28950 | -1.68070 | 9182 ft | 284 kts | 1° |
| 2026-04-27 05:21 | 47.30925 | -1.68042 | 9183 ft | 283 kts | 0° |
| 2026-04-27 05:21 | 47.32892 | -1.68013 | 9118 ft | 284 kts | 1° |
| 2026-04-27 05:22 | 47.34867 | -1.68026 | 8723 ft | 283 kts | 355° |
| 2026-04-27 05:22 | 47.36758 | -1.68780 | 8209 ft | 282 kts | 339° |
| 2026-04-27 05:22 | 47.38480 | -1.70099 | 7730 ft | 277 kts | 326° |
| 2026-04-27 05:22 | 47.39915 | -1.71937 | 7235 ft | 269 kts | 315° |
| 2026-04-27 05:23 | 47.41037 | -1.74100 | 6743 ft | 263 kts | 302° |
| 2026-04-27 05:23 | 47.41845 | -1.76497 | 6250 ft | 259 kts | 296° |
| 2026-04-27 05:23 | 47.42550 | -1.78983 | 5750 ft | 275 kts | 292° |
| 2026-04-27 05:23 | 47.42929 | -1.81912 | 5224 ft | 300 kts | 271° |
| 2026-04-27 05:24 | 47.42793 | -1.84970 | 4699 ft | 295 kts | 265° |
| 2026-04-27 05:24 | 47.42565 | -1.87934 | 4199 ft | 285 kts | 264° |
| 2026-04-27 05:24 | 47.42339 | -1.90782 | 3711 ft | 273 kts | 264° |
| 2026-04-27 05:24 | 47.42129 | -1.93515 | 3226 ft | 263 kts | 264° |
| 2026-04-27 05:25 | 47.41934 | -1.96115 | 2982 ft | 246 kts | 264° |
| 2026-04-27 05:25 | 47.41754 | -1.98537 | 2946 ft | 238 kts | 264° |
| 2026-04-27 05:25 | 47.41574 | -2.00991 | 2991 ft | 237 kts | 264° |
| 2026-04-27 05:25 | 47.41399 | -2.03386 | 2998 ft | 250 kts | 265° |
| 2026-04-27 05:26 | 47.41261 | -2.05285 | 2993 ft | 269 kts | 264° |
| 2026-04-27 05:26 | 47.41052 | -2.08158 | 2988 ft | 294 kts | 264° |
| 2026-04-27 05:26 | 47.40829 | -2.11201 | 2982 ft | 291 kts | 264° |
| 2026-04-27 05:27 | 47.40619 | -2.14054 | 2992 ft | 267 kts | 264° |
| 2026-04-27 05:27 | 47.40428 | -2.16633 | 2996 ft | 240 kts | 264° |
| 2026-04-27 05:27 | 47.40198 | -2.19027 | 2998 ft | 233 kts | 257° |
| 2026-04-27 05:27 | 47.39662 | -2.21160 | 3013 ft | 210 kts | 241° |
| 2026-04-27 05:28 | 47.38847 | -2.22828 | 3020 ft | 190 kts | 230° |
| 2026-04-27 05:28 | 47.37996 | -2.24210 | 3013 ft | 178 kts | 227° |
| 2026-04-27 05:28 | 47.37167 | -2.25505 | 2985 ft | 166 kts | 226° |
| 2026-04-27 05:28 | 47.36355 | -2.26576 | 3013 ft | 151 kts | 217° |
| 2026-04-27 05:29 | 47.35446 | -2.27336 | 3005 ft | 152 kts | 202° |
| 2026-04-27 05:29 | 47.34418 | -2.27738 | 2906 ft | 154 kts | 186° |
| 2026-04-27 05:29 | 47.33349 | -2.27722 | 2507 ft | 155 kts | 169° |
| 2026-04-27 05:29 | 47.32323 | -2.27271 | 2090 ft | 154 kts | 154° |
| 2026-04-27 05:30 | 47.31428 | -2.26446 | 1682 ft | 154 kts | 139° |
| 2026-04-27 05:30 | 47.30706 | -2.25296 | 1257 ft | 153 kts | 123° |
| 2026-04-27 05:30 | 47.30216 | -2.23919 | 835 ft | 150 kts | 109° |
| 2026-04-27 05:30 | 47.30062 | -2.22480 | 649 ft | 138 kts | 91° |
| 2026-04-27 05:31 | 47.30090 | -2.21081 | 524 ft | 139 kts | 81° |
| 2026-04-27 05:31 | 47.30281 | -2.19683 | 428 ft | 139 kts | 72° |
| 2026-04-27 05:31 | 47.30551 | -2.18312 | 310 ft | 139 kts | 72° |
| 2026-04-27 05:31 | 47.30822 | -2.16941 | 142 ft | 137 kts | 72° |
| 2026-04-27 05:32 | 47.31108 | -2.15535 | 389 ft | 153 kts | 72° |
| 2026-04-27 05:32 | 47.31429 | -2.13984 | 1112 ft | 159 kts | 72° |
| 2026-04-27 05:32 | 47.31814 | -2.12364 | 1817 ft | 177 kts | 70° |
| 2026-04-27 05:32 | 47.32257 | -2.10589 | 2592 ft | 194 kts | 69° |
| 2026-04-27 05:33 | 47.32739 | -2.08685 | 3194 ft | 205 kts | 68° |
| 2026-04-27 05:33 | 47.33114 | -2.07348 | 3365 ft | 221 kts | 65° |
| 2026-04-27 05:33 | 47.33816 | -2.05242 | 3257 ft | 232 kts | 61° |
| 2026-04-27 05:33 | 47.34577 | -2.03157 | 3031 ft | 229 kts | 60° |
| 2026-04-27 05:34 | 47.35597 | -2.00432 | 2993 ft | 228 kts | 60° |
| 2026-04-27 05:34 | 47.36190 | -1.99137 | 2985 ft | 227 kts | 45° |
| 2026-04-27 05:34 | 47.37525 | -1.97954 | 2991 ft | 225 kts | 16° |
| 2026-04-27 05:34 | 47.39064 | -1.97506 | 2996 ft | 227 kts | 4° |
| 2026-04-27 05:35 | 47.40618 | -1.97801 | 2991 ft | 228 kts | 338° |
| 2026-04-27 05:35 | 47.41864 | -1.99190 | 2989 ft | 229 kts | 304° |
| 2026-04-27 05:35 | 47.42328 | -2.01405 | 2990 ft | 227 kts | 270° |
| 2026-04-27 05:35 | 47.42125 | -2.03640 | 2981 ft | 214 kts | 258° |
| 2026-04-27 05:36 | 47.41786 | -2.05779 | 2993 ft | 214 kts | 257° |
| 2026-04-27 05:36 | 47.41517 | -2.07939 | 2992 ft | 214 kts | 261° |
| 2026-04-27 05:36 | 47.41258 | -2.10092 | 2992 ft | 212 kts | 261° |
| 2026-04-27 05:36 | 47.41008 | -2.12207 | 2993 ft | 211 kts | 261° |
| 2026-04-27 05:37 | 47.40761 | -2.14346 | 2992 ft | 211 kts | 261° |
| 2026-04-27 05:37 | 47.40517 | -2.16488 | 2993 ft | 211 kts | 261° |
| 2026-04-27 05:37 | 47.40267 | -2.18622 | 2993 ft | 211 kts | 259° |
| 2026-04-27 05:37 | 47.39830 | -2.20687 | 2992 ft | 211 kts | 245° |
| 2026-04-27 05:38 | 47.39044 | -2.22518 | 2993 ft | 212 kts | 231° |
| 2026-04-27 05:38 | 47.38068 | -2.24139 | 2924 ft | 210 kts | 227° |
| 2026-04-27 05:38 | 47.37068 | -2.25685 | 2627 ft | 207 kts | 224° |
| 2026-04-27 05:38 | 47.35960 | -2.26962 | 2256 ft | 197 kts | 209° |
| 2026-04-27 05:39 | 47.34720 | -2.27652 | 1864 ft | 187 kts | 190° |
| 2026-04-27 05:39 | 47.33465 | -2.27720 | 1497 ft | 175 kts | 171° |
| 2026-04-27 05:39 | 47.32333 | -2.27256 | 1136 ft | 165 kts | 153° |
| 2026-04-27 05:39 | 47.31410 | -2.26394 | 949 ft | 146 kts | 138° |
| 2026-04-27 05:40 | 47.30751 | -2.25321 | 672 ft | 139 kts | 122° |
| 2026-04-27 05:40 | 47.30365 | -2.24023 | 531 ft | 138 kts | 104° |
| 2026-04-27 05:40 | 47.30171 | -2.22579 | 630 ft | 148 kts | 95° |
| 2026-04-27 05:40 | 47.30138 | -2.21032 | 590 ft | 156 kts | 87° |
| 2026-04-27 05:41 | 47.30298 | -2.19506 | 452 ft | 144 kts | 75° |
| 2026-04-27 05:41 | 47.30574 | -2.18122 | 256 ft | 138 kts | 73° |
| 2026-04-27 05:41 | 47.30852 | -2.16775 | 88 ft | 138 kts | 72° |
| 2026-04-27 05:41 | 47.31112 | -2.15452 | 26 ft | 123 kts | 75° |
| 2026-04-27 05:42 | 47.31326 | -2.14393 | 26 ft | 95 kts | 73° |
| 2026-04-27 05:42 | 47.31475 | -2.13647 | 28 ft | 34 kts | 73° |
| 2026-04-27 05:42 | 47.31530 | -2.13493 | 26 ft | 10 kts | 34° |
| 2026-04-27 05:42 | 47.31544 | -2.13433 | 28 ft | 8 kts | 128° |
| 2026-04-27 05:43 | 47.31505 | -2.13456 | 29 ft | 9 kts | 253° |
| 2026-04-27 05:43 | 47.31476 | -2.13647 | 28 ft | 24 kts | 256° |
| 2026-04-27 05:43 | 47.31430 | -2.13870 | 23 ft | 24 kts | 253° |
| 2026-04-27 05:43 | 47.31373 | -2.14169 | 24 ft | 32 kts | 255° |
| 2026-04-27 05:44 | 47.31311 | -2.14478 | 30 ft | 31 kts | 253° |
| 2026-04-27 05:44 | 47.31249 | -2.14779 | 30 ft | 30 kts | 253° |
| 2026-04-27 05:44 | 47.31190 | -2.15072 | 31 ft | 30 kts | 253° |
| 2026-04-27 05:44 | 47.31130 | -2.15371 | 28 ft | 29 kts | 253° |
| 2026-04-27 05:45 | 47.31084 | -2.15593 | 24 ft | 9 kts | 252° |
| 2026-04-27 05:45 | 47.31091 | -2.15686 | 25 ft | 10 kts | 316° |
| 2026-04-27 05:45 | 47.31205 | -2.15737 | 27 ft | 16 kts | 344° |
| 2026-04-27 05:45 | 47.31286 | -2.15778 | 29 ft | 10 kts | 326° |
| 2026-04-27 05:46 | 47.31329 | -2.15867 | 28 ft | 11 kts | 300° |
| 2026-04-27 05:46 | 47.31342 | -2.15971 | 26 ft | 10 kts | 252° |
| 2026-04-27 05:46 | 47.31335 | -2.16055 | 25 ft | 3 kts | 299° |
| 2026-04-27 05:46 | 47.31358 | -2.16069 | 28 ft | 5 kts | 346° |
| 2026-04-27 05:47 | 47.31390 | -2.16081 | 29 ft | 1 kts | 345° |
| 2026-04-27 05:47 | 47.31396 | -2.16084 | 29 ft | 0 kts | 344° |
| 2026-04-27 05:47 | 47.31395 | -2.16084 | 29 ft | 0 kts | 344° |